createdAt,value
2023-01-17T00:01:29.298Z,77.59
2023-01-17T00:04:14.556Z,77.63
2023-01-17T00:06:59.397Z,77.37
2023-01-17T00:09:44.169Z,77.36
2023-01-17T00:12:10.746Z,77.47
2023-01-17T00:14:37.220Z,77.56
2023-01-17T00:17:03.917Z,77.71
2023-01-17T00:19:49.003Z,77.70
2023-01-17T00:22:42.530Z,77.43
2023-01-17T00:25:36.473Z,77.33
2023-01-17T00:28:03.909Z,77.76
2023-01-17T00:30:30.323Z,77.80
2023-01-17T00:32:56.838Z,78.12
2023-01-17T00:35:25.271Z,78.13
2023-01-17T00:38:22.063Z,77.58
2023-01-17T00:40:49.628Z,77.99
2023-01-17T00:43:37.649Z,78.14
2023-01-17T00:46:23.683Z,77.78
2023-01-17T00:49:09.405Z,77.91
2023-01-17T00:51:56.169Z,77.88
2023-01-17T00:54:42.148Z,78.21
2023-01-17T00:57:26.913Z,77.81
2023-01-17T01:00:11.647Z,77.88
2023-01-17T01:02:56.970Z,77.99
2023-01-17T01:05:42.256Z,78.14
2023-01-17T01:08:46.541Z,77.22
2023-01-17T01:11:39.828Z,77.37
2023-01-17T01:14:28.216Z,77.80
2023-01-17T01:17:13.473Z,78.11
2023-01-17T01:19:58.253Z,78.23
2023-01-17T01:22:42.890Z,78.20
2023-01-17T01:25:27.718Z,77.96
2023-01-17T01:28:22.072Z,77.42
2023-01-17T01:31:06.741Z,77.95
2023-01-17T01:33:33.086Z,77.71
2023-01-17T01:35:59.464Z,77.67
2023-01-17T01:38:26.171Z,78.24
2023-01-17T01:40:55.218Z,78.06
2023-01-17T01:43:41.270Z,77.67
2023-01-17T01:46:09.928Z,78.05
2023-01-17T01:48:49.416Z,77.54
2023-01-17T01:51:41.363Z,77.33
2023-01-17T01:54:15.283Z,77.98
2023-01-17T01:56:42.573Z,78.29
2023-01-17T01:59:13.409Z,78.01
2023-01-17T02:01:39.879Z,78.03
2023-01-17T02:04:10.226Z,78.25
2023-01-17T02:06:43.415Z,77.54
2023-01-17T02:09:12.685Z,77.74
2023-01-17T02:11:40.291Z,77.61
2023-01-17T02:14:07.043Z,77.63
2023-01-17T02:16:48.721Z,77.42
2023-01-17T02:19:53.928Z,77.19
2023-01-17T02:22:42.052Z,76.78
2023-01-17T02:25:37.594Z,76.75
2023-01-17T02:28:15.438Z,77.59
2023-01-17T02:30:48.194Z,77.59
2023-01-17T02:33:20.704Z,77.78
2023-01-17T02:36:19.066Z,77.27
2023-01-17T02:39:08.483Z,77.36
2023-01-17T02:41:38.915Z,77.55
2023-01-17T02:44:09.150Z,77.67
2023-01-17T02:46:54.023Z,77.25
2023-01-17T02:49:24.069Z,77.67
2023-01-17T02:52:32.437Z,77.48
2023-01-17T02:55:43.951Z,76.91
2023-01-17T02:58:34.333Z,76.68
2023-01-17T03:01:06.714Z,76.95
2023-01-17T03:03:51.665Z,76.68
2023-01-17T03:06:32.344Z,76.03
2023-01-17T03:08:58.703Z,76.50
2023-01-17T03:11:25.207Z,76.76
2023-01-17T03:13:56.812Z,76.15
2023-01-17T03:16:25.593Z,76.33
2023-01-17T03:18:53.714Z,76.44
2023-01-17T03:21:21.711Z,76.29
2023-01-17T03:23:48.032Z,76.02
2023-01-17T03:26:14.688Z,76.21
2023-01-17T03:28:41.049Z,76.23
2023-01-17T03:31:07.477Z,76.13
2023-01-17T03:33:33.944Z,76.14
2023-01-17T03:36:00.333Z,76.29
2023-01-17T03:38:28.526Z,76.46
2023-01-17T03:40:54.973Z,76.31
2023-01-17T03:43:21.508Z,76.04
2023-01-17T03:45:54.299Z,75.53
2023-01-17T03:48:21.602Z,76.07
2023-01-17T03:50:51.438Z,75.63
2023-01-17T03:53:17.792Z,76.23
2023-01-17T03:55:47.836Z,75.99
2023-01-17T03:58:14.608Z,76.23
2023-01-17T04:00:40.990Z,76.68
2023-01-17T04:03:07.488Z,76.73
2023-01-17T04:05:34.051Z,76.76
2023-01-17T04:08:00.728Z,76.63
2023-01-17T04:10:27.160Z,76.45
2023-01-17T04:12:53.582Z,76.70
2023-01-17T04:15:19.977Z,76.99
2023-01-17T04:17:46.372Z,76.82
2023-01-17T04:20:31.705Z,76.51
2023-01-17T04:22:58.195Z,77.21
2023-01-17T04:25:25.702Z,76.92
2023-01-17T04:27:55.648Z,76.91
2023-01-17T04:30:22.118Z,76.83
2023-01-17T04:32:48.484Z,77.22
2023-01-17T04:35:15.235Z,77.35
2023-01-17T04:37:41.758Z,77.56
2023-01-17T04:40:08.796Z,77.34
2023-01-17T04:42:35.460Z,77.31
2023-01-17T04:45:02.173Z,76.74
2023-01-17T04:47:28.609Z,76.54
2023-01-17T04:49:54.988Z,76.40
2023-01-17T04:52:21.528Z,76.43
2023-01-17T04:54:50.854Z,76.77
2023-01-17T04:57:18.652Z,77.04
2023-01-17T04:59:46.371Z,76.85
2023-01-17T05:02:14.041Z,77.24
2023-01-17T05:04:40.470Z,77.53
2023-01-17T05:07:07.181Z,77.25
2023-01-17T05:09:33.676Z,77.32
2023-01-17T05:12:00.078Z,77.45
2023-01-17T05:14:26.932Z,77.57
2023-01-17T05:16:54.925Z,77.53
2023-01-17T05:19:22.406Z,77.45
2023-01-17T05:21:48.953Z,78.05
2023-01-17T05:24:15.536Z,77.67
2023-01-17T05:26:43.126Z,77.89
2023-01-17T05:29:10.266Z,77.96
2023-01-17T05:31:37.496Z,78.16
2023-01-17T05:34:04.443Z,78.53
2023-01-17T05:36:30.913Z,78.38
2023-01-17T05:38:57.348Z,78.59
2023-01-17T05:41:23.806Z,78.55
2023-01-17T05:43:50.182Z,78.16
2023-01-17T05:46:17.966Z,78.29
2023-01-17T05:48:44.447Z,78.29
2023-01-17T05:51:10.823Z,78.15
2023-01-17T05:53:37.299Z,78.03
2023-01-17T05:56:03.900Z,78.08
2023-01-17T05:58:30.281Z,78.19
2023-01-17T06:00:56.752Z,78.25
2023-01-17T06:03:23.168Z,78.01
2023-01-17T06:05:50.072Z,78.35
2023-01-17T06:08:16.633Z,78.29
2023-01-17T06:10:43.105Z,77.97
2023-01-17T06:13:15.193Z,78.03
2023-01-17T06:15:41.853Z,78.34
2023-01-17T06:18:11.638Z,78.06
2023-01-17T06:20:38.577Z,78.01
2023-01-17T06:23:07.477Z,77.96
2023-01-17T06:25:38.878Z,77.73
2023-01-17T06:28:06.697Z,78.21
2023-01-17T06:30:33.650Z,78.00
2023-01-17T06:33:00.040Z,77.83
2023-01-17T06:35:26.497Z,78.15
2023-01-17T06:37:55.302Z,77.77
2023-01-17T06:40:22.389Z,78.12
2023-01-17T06:42:48.800Z,77.53
2023-01-17T06:45:15.194Z,77.96
2023-01-17T06:47:41.854Z,77.71
2023-01-17T06:50:14.020Z,77.90
2023-01-17T06:52:41.690Z,78.14
2023-01-17T06:55:09.091Z,77.80
2023-01-17T06:57:35.983Z,77.87
2023-01-17T07:02:47.842Z,77.46
2023-01-17T07:05:16.287Z,77.14
2023-01-17T07:07:44.425Z,76.76
2023-01-17T07:10:12.753Z,76.41
2023-01-17T07:12:39.725Z,76.30
2023-01-17T07:15:07.834Z,76.05
2023-01-17T07:17:35.113Z,75.99
2023-01-17T07:20:01.655Z,76.09
2023-01-17T07:22:28.200Z,76.03
2023-01-17T07:24:58.434Z,76.08
2023-01-17T07:27:27.748Z,76.50
2023-01-17T07:29:54.483Z,76.68
2023-01-17T07:32:21.335Z,76.24
2023-01-17T07:34:48.015Z,76.92
2023-01-17T07:37:15.423Z,76.28
2023-01-17T07:39:42.295Z,77.01
2023-01-17T07:42:09.298Z,77.00
2023-01-17T07:44:36.068Z,76.67
2023-01-17T07:47:02.646Z,76.96
2023-01-17T07:49:29.199Z,76.93
2023-01-17T07:51:55.635Z,76.82
2023-01-17T07:54:22.193Z,77.20
2023-01-17T07:56:48.926Z,77.33
2023-01-17T07:59:15.500Z,77.19
2023-01-17T08:01:42.042Z,77.94
2023-01-17T08:04:09.328Z,77.63
2023-01-17T08:06:39.434Z,77.70
2023-01-17T08:09:05.877Z,77.60
2023-01-17T08:11:32.442Z,77.92
2023-01-17T08:14:00.043Z,77.42
2023-01-17T08:16:28.670Z,77.51
2023-01-17T08:18:56.566Z,78.20
2023-01-17T08:21:23.312Z,78.26
2023-01-17T08:23:51.499Z,78.13
2023-01-17T08:26:24.294Z,78.04
2023-01-17T08:29:00.459Z,77.62
2023-01-17T08:31:32.508Z,77.64
2023-01-17T08:33:59.545Z,78.14
2023-01-17T08:36:27.678Z,78.08
2023-01-17T08:38:55.393Z,78.13
2023-01-17T08:41:23.649Z,78.40
2023-01-17T08:43:51.788Z,77.94
2023-01-17T08:46:19.024Z,78.42
2023-01-17T08:48:45.880Z,78.36
2023-01-17T08:51:12.643Z,78.37
2023-01-17T08:53:39.086Z,77.90
2023-01-17T08:56:06.114Z,77.69
2023-01-17T08:58:32.944Z,78.07
2023-01-17T09:01:02.264Z,78.18
2023-01-17T09:03:29.550Z,78.49
2023-01-17T09:06:03.315Z,77.34
2023-01-17T09:08:30.777Z,78.18
2023-01-17T09:10:57.244Z,78.42
2023-01-17T09:13:23.980Z,78.41
2023-01-17T09:15:50.531Z,78.35
2023-01-17T09:18:17.164Z,78.18
2023-01-17T09:20:43.681Z,78.23
2023-01-17T09:23:10.295Z,78.29
2023-01-17T09:25:36.791Z,78.71
2023-01-17T09:28:03.216Z,78.89
2023-01-17T09:30:29.774Z,78.83
2023-01-17T09:32:56.244Z,78.51
2023-01-17T09:35:22.701Z,78.67
2023-01-17T09:37:50.612Z,78.85
2023-01-17T09:40:24.540Z,77.69
2023-01-17T09:42:58.038Z,77.99
2023-01-17T09:45:27.782Z,78.17
2023-01-17T09:47:54.826Z,78.59
2023-01-17T09:50:32.119Z,78.18
2023-01-17T09:53:02.811Z,77.91
2023-01-17T09:55:37.214Z,76.55
2023-01-17T09:58:10.569Z,77.44
2023-01-17T10:01:00.385Z,76.67
2023-01-17T10:03:36.028Z,77.95
2023-01-17T10:06:23.614Z,77.02
2023-01-17T10:09:11.977Z,77.37
2023-01-17T10:12:09.728Z,77.15
2023-01-17T10:15:03.151Z,77.52
2023-01-17T10:17:47.992Z,78.67
2023-01-17T10:20:25.688Z,77.37
2023-01-17T10:23:03.604Z,77.06
2023-01-17T10:25:36.215Z,76.73
2023-01-17T10:28:18.379Z,76.02
2023-01-17T10:30:50.413Z,76.58
2023-01-17T10:33:41.644Z,75.86
2023-01-17T10:36:15.755Z,77.19
2023-01-17T10:38:47.459Z,77.51
2023-01-17T10:41:23.726Z,78.57
2023-01-17T10:44:07.040Z,78.09
2023-01-17T10:46:45.177Z,78.80
2023-01-17T10:49:18.593Z,77.25
2023-01-17T10:52:00.110Z,77.60
2023-01-17T10:55:04.032Z,76.45
2023-01-17T10:57:40.406Z,77.35
2023-01-17T11:00:55.235Z,75.68
2023-01-17T11:03:21.961Z,77.89
2023-01-17T11:06:14.787Z,76.19
2023-01-17T11:08:51.195Z,76.98
2023-01-17T11:11:18.544Z,78.17
2023-01-17T11:13:47.729Z,78.41
2023-01-17T11:16:24.719Z,77.36
2023-01-17T11:19:14.745Z,76.65
2023-01-17T11:21:51.011Z,76.90
2023-01-17T11:24:24.901Z,78.15
2023-01-17T11:26:51.495Z,78.39
2023-01-17T11:29:27.139Z,76.41
2023-01-17T11:31:56.193Z,78.10
2023-01-17T11:34:29.392Z,77.46
2023-01-17T11:37:18.583Z,75.65
2023-01-17T11:39:48.169Z,78.98
2023-01-17T11:42:36.196Z,76.57
2023-01-17T11:45:25.360Z,77.01
2023-01-17T11:48:12.635Z,77.60
2023-01-17T11:50:44.504Z,79.05
2023-01-17T11:53:30.135Z,77.61
2023-01-17T11:56:05.932Z,76.89
2023-01-17T11:58:38.301Z,78.77
2023-01-17T12:01:27.297Z,77.03
2023-01-17T12:04:12.034Z,76.31
2023-01-17T12:07:04.945Z,75.22
2023-01-17T12:09:46.559Z,76.54
2023-01-17T12:12:56.667Z,75.75
2023-01-17T12:15:23.173Z,78.22
2023-01-17T12:18:24.645Z,74.74
2023-01-17T12:21:13.169Z,72.46
2023-01-17T12:24:23.907Z,70.95
2023-01-17T12:26:55.486Z,73.25
2023-01-17T12:29:47.410Z,71.37
2023-01-17T12:32:16.946Z,76.09
2023-01-17T12:34:59.080Z,75.68
2023-01-17T12:37:36.922Z,77.73
2023-01-17T12:40:23.983Z,73.94
2023-01-17T12:43:01.400Z,75.72
2023-01-17T12:45:42.695Z,74.94
2023-01-17T12:48:16.367Z,77.12
2023-01-17T12:50:55.190Z,78.20
2023-01-17T12:53:37.798Z,78.67
2023-01-17T12:56:14.310Z,78.05
2023-01-17T12:58:44.848Z,74.91
2023-01-17T13:01:39.537Z,68.24
2023-01-17T13:04:17.398Z,69.24
2023-01-17T13:06:58.764Z,66.05
2023-01-17T13:09:28.177Z,70.12
2023-01-17T13:12:09.801Z,66.61
2023-01-17T13:14:36.194Z,70.44
2023-01-17T13:17:15.008Z,69.48
2023-01-17T13:19:58.384Z,68.65
2023-01-17T13:22:27.066Z,71.67
2023-01-17T13:25:31.830Z,67.93
2023-01-17T13:28:18.765Z,68.46
2023-01-17T13:31:08.844Z,68.20
2023-01-17T13:34:01.640Z,69.43
2023-01-17T13:36:58.221Z,69.96
2023-01-17T13:39:46.547Z,70.73
2023-01-17T13:42:24.904Z,68.57
2023-01-17T13:44:51.516Z,71.81
2023-01-17T13:47:17.799Z,72.53
2023-01-17T13:49:56.097Z,70.44
2023-01-17T13:52:25.184Z,71.76
2023-01-17T13:55:05.253Z,73.09
2023-01-17T13:57:41.695Z,76.71
2023-01-17T14:00:21.296Z,75.79
2023-01-17T14:02:49.461Z,77.80
2023-01-17T14:05:21.208Z,75.73
2023-01-17T14:08:22.122Z,69.85
2023-01-17T14:10:52.953Z,73.21
2023-01-17T14:13:25.106Z,71.60
2023-01-17T14:15:52.165Z,74.74
2023-01-17T14:18:32.880Z,72.27
2023-01-17T14:21:32.236Z,70.51
2023-01-17T14:24:00.616Z,78.85
2023-01-17T14:26:31.921Z,78.53
2023-01-17T14:29:19.474Z,79.95
2023-01-17T14:31:46.582Z,79.50
2023-01-17T14:34:13.991Z,78.48
2023-01-17T14:36:40.575Z,78.20
2023-01-17T14:39:23.226Z,71.41
2023-01-17T14:41:49.739Z,74.08
2023-01-17T14:44:17.102Z,71.21
2023-01-17T14:46:48.557Z,66.68
2023-01-17T14:49:25.885Z,63.52
2023-01-17T14:52:01.959Z,65.36
2023-01-17T14:54:28.867Z,70.88
2023-01-17T14:57:33.826Z,62.53
2023-01-17T15:00:19.901Z,63.38
2023-01-17T15:02:48.280Z,64.36
2023-01-17T15:05:16.979Z,64.86
2023-01-17T15:07:45.778Z,65.55
2023-01-17T15:10:18.929Z,64.21
2023-01-17T15:12:48.076Z,66.36
2023-01-17T15:15:30.154Z,63.86
2023-01-17T15:18:26.964Z,64.88
2023-01-17T15:20:57.916Z,67.36
2023-01-17T15:23:30.370Z,67.13
2023-01-17T15:25:57.775Z,68.93
2023-01-17T15:28:24.580Z,69.44
2023-01-17T15:31:40.113Z,67.23
2023-01-17T15:34:09.033Z,69.54
2023-01-17T15:36:35.558Z,70.45
2023-01-17T15:39:06.138Z,70.31
2023-01-17T15:41:36.246Z,70.24
2023-01-17T15:44:03.354Z,71.06
2023-01-17T15:46:29.991Z,71.45
2023-01-17T15:49:17.488Z,69.13
2023-01-17T15:51:48.795Z,70.88
2023-01-17T15:54:34.009Z,69.98
2023-01-17T15:57:04.857Z,71.75
2023-01-17T15:59:45.497Z,72.96
2023-01-17T16:02:32.324Z,70.88
2023-01-17T16:05:05.280Z,72.72
2023-01-17T16:07:34.459Z,72.66
2023-01-17T16:10:14.271Z,71.38
2023-01-17T16:12:41.231Z,72.76
2023-01-17T16:15:12.717Z,73.21
2023-01-17T16:17:42.625Z,72.62
2023-01-17T16:20:16.788Z,72.35
2023-01-17T16:22:43.835Z,73.19
2023-01-17T16:25:15.790Z,72.60
2023-01-17T16:27:43.194Z,73.42
2023-01-17T16:30:15.148Z,73.33
2023-01-17T16:32:42.883Z,73.14
2023-01-17T16:35:20.586Z,72.64
2023-01-17T16:37:51.326Z,73.36
2023-01-17T16:40:19.485Z,74.08
2023-01-17T16:42:46.512Z,73.96
2023-01-17T16:45:13.988Z,73.86
2023-01-17T16:47:45.964Z,73.68
2023-01-17T16:50:14.875Z,74.36
2023-01-17T16:52:41.520Z,74.48
2023-01-17T16:55:14.539Z,74.61
2023-01-17T16:57:41.032Z,74.95
2023-01-17T17:00:09.544Z,74.38
2023-01-17T17:02:36.110Z,74.34
2023-01-17T17:05:02.529Z,74.56
2023-01-17T17:07:28.914Z,74.56
2023-01-17T17:09:55.327Z,74.38
2023-01-17T17:12:21.847Z,74.87
2023-01-17T17:14:48.230Z,74.81
2023-01-17T17:17:14.616Z,74.83
2023-01-17T17:19:40.963Z,74.92
2023-01-17T17:22:07.397Z,74.65
2023-01-17T17:24:34.055Z,74.95
2023-01-17T17:27:00.475Z,74.97
2023-01-17T17:29:26.888Z,75.09
2023-01-17T17:31:53.786Z,75.16
2023-01-17T17:34:20.749Z,75.17
2023-01-17T17:36:47.241Z,75.17
2023-01-17T17:39:17.377Z,75.34
2023-01-17T17:41:54.653Z,74.82
2023-01-17T17:44:21.052Z,75.25
2023-01-17T17:46:49.239Z,75.19
2023-01-17T17:49:18.560Z,75.33
2023-01-17T17:51:44.934Z,75.06
2023-01-17T17:54:13.583Z,75.16
2023-01-17T17:56:40.730Z,74.99
2023-01-17T17:59:08.991Z,75.04
2023-01-17T18:01:38.176Z,74.98
2023-01-17T18:04:07.094Z,75.23
2023-01-17T18:06:34.511Z,75.28
2023-01-17T18:09:01.990Z,75.41
2023-01-17T18:11:29.155Z,75.11
2023-01-17T18:13:58.562Z,75.43
2023-01-17T18:16:31.090Z,75.72
2023-01-17T18:18:59.140Z,75.67
2023-01-17T18:21:28.118Z,75.37
2023-01-17T18:23:54.551Z,75.64
2023-01-17T18:26:30.139Z,75.44
2023-01-17T18:28:58.271Z,75.94
2023-01-17T18:31:27.036Z,75.90
2023-01-17T18:33:55.420Z,76.25
2023-01-17T18:36:23.441Z,75.84
2023-01-17T18:38:52.627Z,76.05
2023-01-17T18:41:28.640Z,75.47
2023-01-17T18:43:58.675Z,75.40
2023-01-17T18:46:26.235Z,75.65
2023-01-17T18:48:55.436Z,75.43
2023-01-17T18:51:21.985Z,75.62
2023-01-17T18:53:48.537Z,75.41
2023-01-17T18:56:18.421Z,75.28
2023-01-17T18:58:46.872Z,75.23
2023-01-17T19:01:14.838Z,74.77
2023-01-17T19:03:43.119Z,75.01
2023-01-17T19:06:12.679Z,75.55
2023-01-17T19:08:40.202Z,75.39
2023-01-17T19:11:06.815Z,75.63
2023-01-17T19:13:35.927Z,74.98
2023-01-17T19:16:04.881Z,75.25
2023-01-17T19:18:31.367Z,75.21
2023-01-17T19:21:15.907Z,73.57
2023-01-17T19:23:45.573Z,74.79
2023-01-17T19:26:14.147Z,74.70
2023-01-17T19:28:42.513Z,74.75
2023-01-17T19:31:13.756Z,74.29
2023-01-17T19:33:43.527Z,74.96
2023-01-17T19:36:14.397Z,74.65
2023-01-17T19:38:40.845Z,74.49
2023-01-17T19:41:09.057Z,74.81
2023-01-17T19:43:35.838Z,74.63
2023-01-17T19:46:02.400Z,74.38
2023-01-17T19:48:30.297Z,75.04
2023-01-17T19:51:12.791Z,73.97
2023-01-17T19:53:41.014Z,74.20
2023-01-17T19:56:09.534Z,74.25
2023-01-17T19:58:36.630Z,74.49
2023-01-17T20:01:10.746Z,73.28
2023-01-17T20:03:38.572Z,73.99
2023-01-17T20:06:06.847Z,74.27
2023-01-17T20:08:34.841Z,74.89
2023-01-17T20:11:14.821Z,73.23
2023-01-17T20:13:44.833Z,74.04
2023-01-17T20:16:16.395Z,74.73
2023-01-17T20:18:43.793Z,74.93
2023-01-17T20:21:17.301Z,73.92
2023-01-17T20:23:46.991Z,74.66
2023-01-17T20:26:19.292Z,73.66
2023-01-17T20:28:47.717Z,74.13
2023-01-17T20:31:20.074Z,73.48
2023-01-17T20:33:50.229Z,74.09
2023-01-17T20:36:18.423Z,74.20
2023-01-17T20:38:45.381Z,74.49
2023-01-17T20:41:16.564Z,73.42
2023-01-17T20:43:44.539Z,74.13
2023-01-17T20:46:12.376Z,73.87
2023-01-17T20:48:45.438Z,72.67
2023-01-17T20:51:12.389Z,73.95
2023-01-17T20:53:40.855Z,74.03
2023-01-17T20:56:08.808Z,73.92
2023-01-17T20:58:35.424Z,74.25
2023-01-17T21:01:02.100Z,73.85
2023-01-17T21:03:29.319Z,73.80
2023-01-17T21:06:05.781Z,72.70
2023-01-17T21:08:34.162Z,73.43
2023-01-17T21:11:01.054Z,73.45
2023-01-17T21:13:28.018Z,73.69
2023-01-17T21:15:55.246Z,73.83
2023-01-17T21:18:23.990Z,73.89
2023-01-17T21:20:51.044Z,73.86
2023-01-17T21:23:18.113Z,74.26
2023-01-17T21:26:05.624Z,72.79
2023-01-17T21:28:34.820Z,73.99
2023-01-17T21:31:07.234Z,72.81
2023-01-17T21:33:33.751Z,73.98
2023-01-17T21:36:08.280Z,72.80
2023-01-17T21:38:34.717Z,73.89
2023-01-17T21:41:01.212Z,74.08
2023-01-17T21:43:27.749Z,73.65
2023-01-17T21:45:54.531Z,74.47
2023-01-17T21:48:21.021Z,74.41
2023-01-17T21:50:47.447Z,74.02
2023-01-17T21:53:14.091Z,74.19
2023-01-17T21:55:58.955Z,74.33
2023-01-17T21:58:43.559Z,73.79
2023-01-17T22:01:22.117Z,72.10
2023-01-17T22:03:56.170Z,73.56
2023-01-17T22:06:25.813Z,73.56
2023-01-17T22:08:52.342Z,73.45
2023-01-17T22:11:22.479Z,73.55
2023-01-17T22:13:49.325Z,74.03
2023-01-17T22:16:18.541Z,74.21
2023-01-17T22:18:46.137Z,73.90
2023-01-17T22:21:12.670Z,74.26
2023-01-17T22:23:44.642Z,74.03
2023-01-17T22:26:11.766Z,73.32
2023-01-17T22:28:39.737Z,73.44
2023-01-17T22:31:19.126Z,72.33
2023-01-17T22:33:47.053Z,74.39
2023-01-17T22:36:14.794Z,73.64
2023-01-17T22:38:44.494Z,73.92
2023-01-17T22:41:15.990Z,74.12
2023-01-17T22:43:45.339Z,73.66
2023-01-17T22:46:17.973Z,73.36
2023-01-17T22:48:45.448Z,73.48
2023-01-17T22:51:14.753Z,73.07
2023-01-17T22:53:42.925Z,73.42
2023-01-17T22:56:12.555Z,72.95
2023-01-17T22:58:42.305Z,73.71
2023-01-17T23:01:12.086Z,73.83
2023-01-17T23:03:40.767Z,73.56
2023-01-17T23:06:16.188Z,71.91
2023-01-17T23:08:45.732Z,72.97
2023-01-17T23:11:40.603Z,71.29
2023-01-17T23:14:28.640Z,71.66
2023-01-17T23:17:19.282Z,72.40
2023-01-17T23:19:54.387Z,72.57
2023-01-17T23:22:26.944Z,72.50
2023-01-17T23:24:55.227Z,73.33
2023-01-17T23:27:45.676Z,72.11
2023-01-17T23:30:12.436Z,73.13
2023-01-17T23:32:40.431Z,72.91
2023-01-17T23:35:07.296Z,73.46
2023-01-17T23:37:52.310Z,73.93
2023-01-17T23:40:19.352Z,73.42
2023-01-17T23:43:04.744Z,73.70
2023-01-17T23:45:34.876Z,73.43
2023-01-17T23:48:01.988Z,73.79
2023-01-17T23:50:28.467Z,74.26
2023-01-17T23:52:55.312Z,74.15
2023-01-17T23:55:23.084Z,74.29
2023-01-17T23:57:51.687Z,74.02
